Time;durP1;ratioP1;P1;durP2;ratioP2;P2;SDS_P1;SDS_P2;PMS_P1;PMS_P2;Temp;Humidity;BMP_temperature;BMP_pressure;BME280_temperature;BME280_humidity;BME280_pressure;Samples;Min_cycle;Max_cycle;Signal;HPM_P1;HPM_P2
2023/01/20 00:02:23;;;;;;;24.60;16.63;;;;;;;3.49;100.00;99647.69;5108693;28;20482;-68
2023/01/20 00:04:48;;;;;;;26.05;16.73;;;;;;;3.55;100.00;99644.63;5108450;28;20031;-67
2023/01/20 00:07:14;;;;;;;24.45;16.27;;;;;;;3.46;100.00;99643.47;5108729;28;20032;-68
2023/01/20 00:09:39;;;;;;;26.45;16.48;;;;;;;3.40;100.00;99635.06;5107244;28;20548;-67
2023/01/20 00:12:05;;;;;;;27.85;17.45;;;;;;;3.47;100.00;99649.59;5109216;28;20027;-69
2023/01/20 00:14:31;;;;;;;30.45;17.50;;;;;;;3.52;100.00;99647.47;5141098;27;20038;-69
2023/01/20 00:16:56;;;;;;;24.63;16.00;;;;;;;3.33;100.00;99647.06;5109110;28;20032;-70
2023/01/20 00:19:22;;;;;;;23.90;15.75;;;;;;;3.33;100.00;99647.06;5107938;28;20031;-67
2023/01/20 00:21:47;;;;;;;24.10;16.70;;;;;;;3.38;100.00;99635.19;5106827;28;20036;-67
2023/01/20 00:24:13;;;;;;;26.08;16.60;;;;;;;3.29;100.00;99642.94;5108338;28;20446;-67
2023/01/20 00:26:39;;;;;;;26.08;16.08;;;;;;;3.23;100.00;99649.50;5108081;28;20495;-68
2023/01/20 00:29:04;;;;;;;22.70;15.98;;;;;;;3.30;100.00;99647.25;5107102;28;20019;-67
2023/01/20 00:31:31;;;;;;;26.30;17.52;;;;;;;3.33;100.00;99647.06;5107863;28;20666;-68
2023/01/20 00:33:59;;;;;;;27.83;16.63;;;;;;;3.36;100.00;99653.00;5106745;28;20020;-67
2023/01/20 00:36:27;;;;;;;27.55;16.80;;;;;;;3.26;100.00;99649.25;5107965;28;20476;-67
2023/01/20 00:38:53;;;;;;;24.98;16.60;;;;;;;3.36;100.00;99658.31;5108010;28;20372;-67
2023/01/20 00:41:19;;;;;;;25.45;17.15;;;;;;;3.27;100.00;99643.03;5108307;28;20468;-68
2023/01/20 00:43:44;;;;;;;22.80;15.60;;;;;;;3.31;100.00;99636.56;5107788;28;20111;-67
2023/01/20 00:46:10;;;;;;;24.48;16.25;;;;;;;3.32;100.00;99640.91;5106776;28;20115;-67
2023/01/20 00:48:36;;;;;;;25.52;16.23;;;;;;;3.30;100.00;99649.91;5106587;28;20491;-67
2023/01/20 00:51:03;;;;;;;27.83;17.65;;;;;;;3.27;100.00;99635.09;5108201;28;20062;-67
2023/01/20 00:53:29;;;;;;;26.55;16.90;;;;;;;3.31;100.00;99636.56;5110161;28;20024;-67
2023/01/20 00:55:55;;;;;;;28.98;18.23;;;;;;;3.19;100.00;99631.28;5111828;28;20031;-67
2023/01/20 00:58:20;;;;;;;26.60;17.52;;;;;;;3.15;100.00;99627.13;5112050;28;20042;-68
2023/01/20 01:00:48;;;;;;;28.25;17.83;;;;;;;3.27;100.00;99620.97;5111472;28;20055;-67
2023/01/20 01:03:14;;;;;;;28.13;16.75;;;;;;;3.17;100.00;99627.88;5111852;28;20039;-67
2023/01/20 01:05:39;;;;;;;28.38;17.33;;;;;;;3.03;100.00;99612.09;5111669;28;20036;-67
2023/01/20 01:08:05;;;;;;;28.23;17.55;;;;;;;3.06;100.00;99606.56;5112314;28;20753;-69
2023/01/20 01:10:31;;;;;;;27.38;17.27;;;;;;;3.00;100.00;99599.88;5111728;28;20104;-67
2023/01/20 01:13:02;;;;;;;27.50;16.65;;;;;;;3.04;100.00;99604.03;5110952;28;20053;-68
2023/01/20 01:15:28;;;;;;;24.80;16.38;;;;;;;3.02;100.00;99590.03;5110104;28;20516;-67
2023/01/20 01:17:55;;;;;;;27.55;17.73;;;;;;;3.12;100.00;99583.16;5111269;28;20112;-67
2023/01/20 01:20:20;;;;;;;28.63;17.02;;;;;;;3.15;100.00;99579.44;5111179;28;20173;-67
2023/01/20 01:22:46;;;;;;;24.17;16.77;;;;;;;3.06;100.00;99572.16;5111530;28;20118;-68
2023/01/20 01:25:12;;;;;;;25.13;16.15;;;;;;;3.17;100.00;99581.03;5111442;28;20111;-67
2023/01/20 01:27:37;;;;;;;27.23;16.88;;;;;;;3.28;100.00;99575.84;5111400;28;20023;-67
2023/01/20 01:30:03;;;;;;;24.42;15.60;;;;;;;3.24;100.00;99569.06;5111095;28;20083;-67
2023/01/20 01:32:29;;;;;;;27.25;17.73;;;;;;;3.24;100.00;99577.00;5111576;28;20460;-67
2023/01/20 01:34:54;;;;;;;27.40;17.77;;;;;;;3.27;100.00;99568.84;5111137;28;20016;-67
2023/01/20 01:37:20;;;;;;;24.23;15.93;;;;;;;3.25;100.00;99561.94;5111164;28;20023;-67
2023/01/20 01:39:45;;;;;;;27.80;17.75;;;;;;;3.27;100.00;99565.34;5111028;28;20072;-67
2023/01/20 01:42:16;;;;;;;30.55;17.88;;;;;;;3.41;100.00;99560.75;5111048;28;20027;-67
2023/01/20 01:45:09;;;;;;;27.52;17.05;;;;;;;3.32;100.00;99571.19;5110921;28;20042;-67
2023/01/20 01:47:49;;;;;;;27.95;17.38;;;;;;;3.26;100.00;99576.91;5111372;28;20035;-68
2023/01/20 01:50:47;;;;;;;28.98;17.48;;;;;;;3.24;100.00;99578.78;5110919;28;20112;-68
2023/01/20 01:53:14;;;;;;;32.25;18.70;;;;;;;3.20;100.00;99569.38;5084943;28;20052;-69
2023/01/20 01:55:48;;;;;;;30.48;17.88;;;;;;;3.27;100.00;99578.59;5111643;28;20027;-69
2023/01/20 01:58:18;;;;;;;27.55;17.48;;;;;;;3.26;100.00;99580.38;5109812;28;20400;-69
2023/01/20 02:00:44;;;;;;;30.45;18.50;;;;;;;3.28;100.00;99588.22;5109619;28;20038;-69
2023/01/20 02:03:11;;;;;;;28.50;18.90;;;;;;;3.30;100.00;99591.63;5111043;28;20027;-69
2023/01/20 02:05:38;;;;;;;31.50;19.17;;;;;;;3.30;100.00;99595.13;5109573;28;20114;-69
2023/01/20 02:08:06;;;;;;;29.98;19.17;;;;;;;3.31;100.00;99594.16;5111446;28;20040;-69
2023/01/20 02:10:31;;;;;;;30.63;18.73;;;;;;;3.37;100.00;99599.03;5111410;28;20028;-69
2023/01/20 02:12:58;;;;;;;28.75;17.52;;;;;;;3.33;100.00;99588.75;5110579;28;20027;-69
2023/01/20 02:15:29;;;;;;;26.38;17.75;;;;;;;3.32;100.00;99590.56;5111071;28;20038;-69
2023/01/20 02:18:12;;;;;;;27.45;18.40;;;;;;;3.36;100.00;99600.00;5110896;28;20482;-69
2023/01/20 02:21:25;;;;;;;28.15;17.88;;;;;;;3.37;100.00;99600.84;5111444;28;20498;-69
2023/01/20 02:24:23;;;;;;;27.83;18.45;;;;;;;3.37;100.00;99607.00;5044729;28;20032;-69
2023/01/20 02:27:29;;;;;;;29.88;18.08;;;;;;;3.39;100.00;99609.53;5109680;28;20032;-69
2023/01/20 02:30:22;;;;;;;28.27;18.00;;;;;;;3.39;100.00;99614.84;5088020;28;20095;-69
2023/01/20 02:33:19;;;;;;;26.88;17.45;;;;;;;3.39;100.00;99625.44;5110577;28;20600;-69
2023/01/20 02:36:06;;;;;;;28.10;18.52;;;;;;;3.36;100.00;99620.34;5109948;28;20091;-69
2023/01/20 02:38:48;;;;;;;28.38;17.52;;;;;;;3.40;100.00;99619.16;5107939;28;20415;-67
2023/01/20 02:41:31;;;;;;;27.65;17.88;;;;;;;3.40;100.00;99624.47;5104184;28;20518;-67
2023/01/20 02:44:18;;;;;;;28.80;18.20;;;;;;;3.39;100.00;99617.47;5107342;27;20044;-67
2023/01/20 02:47:25;;;;;;;29.92;18.15;;;;;;;3.38;100.00;99607.81;5107308;27;20035;-68
2023/01/20 02:50:20;;;;;;;26.42;16.98;;;;;;;3.43;100.00;99621.59;5060827;28;20083;-67
2023/01/20 02:52:49;;;;;;;;;;;;;;;3.38;100.00;99623.72;5036721;28;20188;-67
2023/01/20 02:55:21;;;;;;;27.95;16.85;;;;;;;3.36;100.00;99625.66;5094205;28;20004;-68
2023/01/20 02:57:52;;;;;;;27.92;17.70;;;;;;;3.33;100.00;99613.47;5109692;28;20034;-68
2023/01/20 03:00:24;;;;;;;30.55;18.77;;;;;;;3.38;100.00;99613.97;5109187;28;20104;-67
2023/01/20 03:02:53;;;;;;;28.50;18.17;;;;;;;3.38;100.00;99610.47;5109448;27;20027;-67
2023/01/20 03:05:42;;;;;;;26.25;17.40;;;;;;;3.36;100.00;99618.56;5109788;28;20705;-67
2023/01/20 03:08:10;;;;;;;27.70;17.10;;;;;;;3.39;100.00;99612.19;5108328;28;20403;-67
2023/01/20 03:10:37;;;;;;;27.60;17.75;;;;;;;3.40;100.00;99613.88;5109662;27;20023;-67
2023/01/20 03:13:15;;;;;;;27.88;18.88;;;;;;;3.41;100.00;99612.91;5109647;28;20028;-67
2023/01/20 03:15:57;;;;;;;27.95;18.05;;;;;;;3.48;100.00;99615.03;5107681;28;20096;-67
2023/01/20 03:18:23;;;;;;;29.30;18.13;;;;;;;3.47;100.00;99612.47;5109499;28;20042;-67
2023/01/20 03:20:49;;;;;;;31.10;19.45;;;;;;;3.45;100.00;99607.28;5109618;28;20031;-69
2023/01/20 03:23:14;;;;;;;28.13;17.48;;;;;;;3.43;100.00;99611.00;5109962;28;20062;-69
2023/01/20 03:25:42;;;;;;;29.00;18.33;;;;;;;3.52;100.00;99605.91;5108974;28;20503;-69
2023/01/20 03:28:08;;;;;;;28.13;18.23;;;;;;;3.49;100.00;99623.84;5110198;28;20034;-69
2023/01/20 03:30:34;;;;;;;26.45;17.88;;;;;;;3.51;100.00;99612.16;5109989;28;20024;-69
2023/01/20 03:33:00;;;;;;;26.42;17.83;;;;;;;3.48;100.00;99611.56;5109210;28;20080;-69
2023/01/20 03:35:26;;;;;;;27.98;17.80;;;;;;;3.45;100.00;99615.25;5111095;27;20028;-69
2023/01/20 03:37:52;;;;;;;28.92;18.58;;;;;;;3.49;100.00;99627.34;5109700;28;20076;-69
2023/01/20 03:40:17;;;;;;;29.60;18.20;;;;;;;3.44;100.00;99599.44;5110076;28;20027;-69
2023/01/20 03:42:46;;;;;;;27.75;18.75;;;;;;;3.35;100.00;99594.81;5109647;28;20051;-69
2023/01/20 03:45:12;;;;;;;30.58;20.08;;;;;;;3.43;100.00;99600.41;5109469;28;20027;-69
2023/01/20 03:47:55;;;;;;;28.73;19.65;;;;;;;3.42;100.00;99593.41;5108615;28;20059;-69
2023/01/20 03:50:56;;;;;;;32.80;19.48;;;;;;;3.42;100.00;99583.66;5109482;28;20047;-69
2023/01/20 03:54:00;;;;;;;31.63;20.10;;;;;;;3.46;100.00;99590.44;5102370;28;20035;-69
2023/01/20 03:56:34;;;;;;;32.00;19.95;;;;;;;3.48;100.00;99590.34;5066576;28;20044;-69
2023/01/20 03:59:01;;;;;;;;;;;;;;;3.51;100.00;99588.31;5102135;28;20126;-69
2023/01/20 04:01:33;;;;;;;31.27;18.00;;;;;;;3.51;100.00;99571.56;5108259;28;19911;-69
2023/01/20 04:04:00;;;;;;;26.83;17.65;;;;;;;3.49;100.00;99576.97;5109148;28;20055;-70
2023/01/20 04:06:28;;;;;;;29.55;19.30;;;;;;;3.49;100.00;99568.19;5109375;28;20125;-69
2023/01/20 04:08:58;;;;;;;33.08;20.05;;;;;;;3.49;100.00;99573.47;5109418;28;20051;-70
2023/01/20 04:11:25;;;;;;;29.17;19.55;;;;;;;3.52;100.00;99581.22;5109524;28;20027;-69
2023/01/20 04:13:51;;;;;;;29.88;19.02;;;;;;;3.51;100.00;99587.47;5109165;28;20024;-69
2023/01/20 04:16:18;;;;;;;29.05;19.20;;;;;;;3.52;100.00;99590.00;5107197;28;20039;-70
2023/01/20 04:18:49;;;;;;;28.13;19.05;;;;;;;3.55;100.00;99589.78;5108293;28;20035;-70
2023/01/20 04:21:53;;;;;;;28.65;18.67;;;;;;;3.57;100.00;99589.66;5108470;28;20114;-69
2023/01/20 04:25:05;;;;;;;29.38;19.05;;;;;;;3.53;100.00;99596.16;5049886;28;20404;-69
2023/01/20 04:27:31;;;;;;;28.58;19.52;;;;;;;3.45;100.00;99587.91;5014664;28;20045;-69
2023/01/20 04:29:56;;;;;;;31.67;20.63;;;;;;;3.47;100.00;99592.13;5031737;28;20119;-69
2023/01/20 04:32:21;;;;;;;29.45;19.45;;;;;;;3.48;100.00;99593.81;5068483;28;20096;-69
2023/01/20 04:34:50;;;;;;;28.58;19.83;;;;;;;3.47;100.00;99592.13;5110417;28;20110;-70
2023/01/20 04:37:15;;;;;;;30.23;18.90;;;;;;;3.45;100.00;99585.25;5111228;28;20070;-69
2023/01/20 04:39:41;;;;;;;30.02;20.50;;;;;;;3.46;100.00;99576.34;5112316;27;20472;-69
2023/01/20 04:42:06;;;;;;;31.83;19.98;;;;;;;3.48;100.00;99569.97;5111815;28;20031;-70
2023/01/20 04:44:32;;;;;;;28.15;19.05;;;;;;;3.49;100.00;99569.03;5112961;28;20052;-69
2023/01/20 04:46:57;;;;;;;29.88;19.20;;;;;;;3.46;100.00;99558.66;5113235;27;20051;-69
2023/01/20 04:49:23;;;;;;;32.88;20.60;;;;;;;3.53;100.00;99556.38;5112610;28;20047;-68
2023/01/20 04:51:48;;;;;;;27.95;18.67;;;;;;;3.55;100.00;99551.84;5112369;28;20524;-69
2023/01/20 04:54:14;;;;;;;32.58;20.27;;;;;;;3.54;100.00;99544.81;5112899;28;20030;-70
2023/01/20 04:56:39;;;;;;;31.73;20.67;;;;;;;3.54;100.00;99540.38;5112543;28;20032;-69
2023/01/20 04:59:05;;;;;;;30.25;20.50;;;;;;;3.52;100.00;99544.09;5111067;28;20035;-69
2023/01/20 05:01:30;;;;;;;32.60;19.77;;;;;;;3.48;100.00;99532.03;5111986;28;20019;-70
2023/01/20 05:03:55;;;;;;;30.75;20.92;;;;;;;3.55;100.00;99539.41;5110951;28;20023;-68
2023/01/20 05:06:21;;;;;;;31.73;19.67;;;;;;;3.56;100.00;99534.97;5111698;28;20027;-67
2023/01/20 05:08:46;;;;;;;31.52;20.95;;;;;;;3.56;100.00;99527.03;5111530;28;20020;-67
2023/01/20 05:11:12;;;;;;;35.15;21.63;;;;;;;3.53;100.00;99527.22;5111986;28;20538;-67
2023/01/20 05:13:38;;;;;;;30.90;20.40;;;;;;;3.52;100.00;99518.41;5111763;28;20051;-67
2023/01/20 05:16:08;;;;;;;33.60;21.77;;;;;;;3.54;100.00;99516.53;5111514;28;20063;-67
2023/01/20 05:18:36;;;;;;;33.00;21.02;;;;;;;3.57;100.00;99520.75;5110197;28;20122;-67
2023/01/20 05:21:03;;;;;;;33.55;22.00;;;;;;;3.53;100.00;99513.97;5111026;28;20077;-68
2023/01/20 05:23:29;;;;;;;38.80;22.98;;;;;;;3.46;100.00;99510.09;5109990;28;20027;-68
2023/01/20 05:25:54;;;;;;;39.85;22.90;;;;;;;3.41;100.00;99501.59;5111257;28;20032;-67
2023/01/20 05:28:20;;;;;;;42.20;24.60;;;;;;;3.45;100.00;99513.69;5111464;28;20143;-67
2023/01/20 05:30:47;;;;;;;35.28;22.13;;;;;;;3.45;100.00;99503.09;5109979;28;20407;-67
2023/01/20 05:33:12;;;;;;;33.95;22.13;;;;;;;3.48;100.00;99500.22;5111004;28;20042;-67
2023/01/20 05:35:38;;;;;;;35.05;21.75;;;;;;;3.41;100.00;99491.00;5111188;28;20035;-68
2023/01/20 05:38:03;;;;;;;36.25;21.80;;;;;;;3.44;100.00;99496.94;5110709;28;20475;-68
2023/01/20 05:40:29;;;;;;;35.97;23.00;;;;;;;3.44;100.00;99499.59;5111168;28;20110;-68
2023/01/20 05:43:01;;;;;;;34.55;22.42;;;;;;;3.51;100.00;99506.13;5109506;28;20114;-68
2023/01/20 05:45:27;;;;;;;41.13;23.25;;;;;;;3.44;100.00;99499.59;5110785;28;20027;-68
2023/01/20 05:47:57;;;;;;;37.03;22.23;;;;;;;3.51;100.00;99513.25;5111715;27;20123;-68
2023/01/20 05:50:22;;;;;;;33.80;21.92;;;;;;;3.46;100.00;99503.00;5109384;28;20047;-68
2023/01/20 05:52:48;;;;;;;33.10;22.60;;;;;;;3.22;100.00;99458.84;5110908;28;20034;-68
2023/01/20 05:55:13;;;;;;;36.40;22.42;;;;;;;3.42;100.00;99482.94;5110691;28;20039;-68
2023/01/20 05:57:39;;;;;;;34.38;22.48;;;;;;;3.55;100.00;99491.69;5110968;28;20042;-68
2023/01/20 06:00:06;;;;;;;37.47;22.60;;;;;;;3.51;100.00;99492.06;5110472;28;20058;-68
2023/01/20 06:02:32;;;;;;;37.58;23.73;;;;;;;3.49;100.00;99496.63;5094088;28;20038;-68
2023/01/20 06:05:00;;;;;;;37.60;21.88;;;;;;;3.44;100.00;99502.25;5110770;28;20031;-68
2023/01/20 06:07:27;;;;;;;36.38;23.40;;;;;;;3.53;100.00;99511.34;5110336;28;20015;-68
2023/01/20 06:09:52;;;;;;;35.05;23.77;;;;;;;3.61;100.00;99504.50;5109185;28;20027;-68
2023/01/20 06:12:18;;;;;;;36.40;23.45;;;;;;;3.58;100.00;99531.25;5110588;28;20498;-68
2023/01/20 06:14:43;;;;;;;38.15;23.80;;;;;;;3.52;100.00;99536.97;5110280;28;20479;-68
2023/01/20 06:17:09;;;;;;;38.28;23.63;;;;;;;3.47;100.00;99528.53;5110543;28;20031;-68
2023/01/20 06:19:35;;;;;;;37.50;23.13;;;;;;;3.50;100.00;99530.09;5109411;28;20111;-68
2023/01/20 06:22:00;;;;;;;36.17;21.95;;;;;;;3.48;100.00;99540.00;5110416;28;20061;-68
2023/01/20 06:24:26;;;;;;;39.13;24.23;;;;;;;3.48;100.00;99555.88;5110153;28;20125;-68
2023/01/20 06:26:51;;;;;;;37.83;22.52;;;;;;;3.44;100.00;99542.00;5109040;28;20024;-68
2023/01/20 06:29:17;;;;;;;40.22;24.40;;;;;;;3.46;100.00;99549.84;5110311;28;20030;-67
2023/01/20 06:31:43;;;;;;;36.65;23.48;;;;;;;3.53;100.00;99548.44;5110009;27;20039;-68
2023/01/20 06:34:10;;;;;;;35.67;22.63;;;;;;;3.51;100.00;99558.31;5108545;28;20051;-68
2023/01/20 06:36:35;;;;;;;36.33;23.27;;;;;;;3.47;100.00;99557.69;5109861;28;20027;-68
2023/01/20 06:39:01;;;;;;;37.47;22.88;;;;;;;3.43;100.00;99544.75;5109615;28;20409;-68
2023/01/20 06:41:26;;;;;;;39.15;23.10;;;;;;;3.49;100.00;99546.97;5111796;27;20072;-68
2023/01/20 06:43:52;;;;;;;36.20;23.00;;;;;;;3.53;100.00;99557.25;5108573;28;20571;-68
2023/01/20 06:46:17;;;;;;;38.97;23.52;;;;;;;3.54;100.00;99544.81;5109985;27;20032;-67
2023/01/20 06:48:44;;;;;;;39.63;24.25;;;;;;;3.58;100.00;99554.28;5108600;28;20039;-67
2023/01/20 06:51:14;;;;;;;37.38;22.60;;;;;;;3.59;100.00;99554.16;5109172;28;20043;-67
2023/01/20 06:53:40;;;;;;;36.85;22.77;;;;;;;3.58;100.00;99547.16;5109820;28;20354;-67
2023/01/20 06:56:06;;;;;;;38.13;23.00;;;;;;;3.65;100.00;99559.00;5109521;28;20027;-67
2023/01/20 06:58:32;;;;;;;37.83;23.77;;;;;;;3.64;100.00;99559.13;5099224;27;20024;-67
2023/01/20 07:01:04;;;;;;;37.50;22.83;;;;;;;3.65;100.00;99555.53;5105833;28;20032;-67
2023/01/20 07:03:30;;;;;;;42.50;22.77;;;;;;;3.64;100.00;99538.75;5100734;28;20036;-67
2023/01/20 07:05:59;;;;;;;37.38;23.10;;;;;;;3.66;100.00;99551.91;5102535;28;20042;-68
2023/01/20 07:08:24;;;;;;;35.67;22.83;;;;;;;3.66;100.00;99543.94;5104665;28;20046;-67
2023/01/20 07:10:50;;;;;;;37.45;23.60;;;;;;;3.71;100.00;99549.78;5101366;28;20027;-67
2023/01/20 07:13:15;;;;;;;36.78;24.10;;;;;;;3.75;100.00;99548.59;5096868;28;20123;-67
2023/01/20 07:15:40;;;;;;;37.42;23.17;;;;;;;3.76;100.00;99545.84;5109343;28;20039;-67
2023/01/20 07:18:06;;;;;;;39.05;24.02;;;;;;;3.80;100.00;99549.94;5109390;27;20103;-67
2023/01/20 07:20:31;;;;;;;35.45;21.85;;;;;;;3.79;100.00;99565.97;5110423;27;20511;-67
2023/01/20 07:23:00;;;;;;;36.00;22.08;;;;;;;3.77;100.00;99567.91;5109386;28;20121;-67
2023/01/20 07:25:26;;;;;;;36.70;22.90;;;;;;;3.78;100.00;99575.72;5108250;28;20475;-67
2023/01/20 07:27:52;;;;;;;35.90;21.88;;;;;;;3.79;100.00;99566.84;5109151;28;20106;-67
2023/01/20 07:30:17;;;;;;;38.03;22.67;;;;;;;3.72;100.00;99564.72;5109352;28;20125;-67
2023/01/20 07:32:43;;;;;;;42.05;25.75;;;;;;;3.83;100.00;99580.69;5109180;28;20080;-67
2023/01/20 07:35:08;;;;;;;38.22;24.10;;;;;;;3.83;100.00;99565.66;5109109;28;20043;-67
2023/01/20 07:37:34;;;;;;;40.53;23.30;;;;;;;3.83;100.00;99564.78;5108823;28;20035;-67
2023/01/20 07:40:00;;;;;;;38.65;23.88;;;;;;;3.88;100.00;99557.34;5110055;27;20352;-67
2023/01/20 07:42:25;;;;;;;36.95;23.15;;;;;;;3.83;100.00;99552.38;5110083;27;20055;-67
2023/01/20 07:44:51;;;;;;;37.60;22.30;;;;;;;3.86;100.00;99553.97;5108857;28;20028;-67
2023/01/20 07:47:16;;;;;;;33.95;21.67;;;;;;;3.87;100.00;99542.41;5109230;28;20074;-67
2023/01/20 07:49:42;;;;;;;37.28;22.38;;;;;;;3.88;100.00;99552.06;5107506;28;20048;-68
2023/01/20 07:52:07;;;;;;;41.78;23.55;;;;;;;3.90;100.00;99558.94;5108677;27;20046;-67
2023/01/20 07:54:33;;;;;;;38.63;22.80;;;;;;;3.91;100.00;99546.53;5109310;28;20032;-67
2023/01/20 07:56:58;;;;;;;38.58;22.52;;;;;;;3.90;100.00;99547.50;5108783;28;20064;-68
2023/01/20 07:59:25;;;;;;;38.63;23.08;;;;;;;3.89;100.00;99551.09;5107467;27;20031;-68
2023/01/20 08:01:50;;;;;;;37.05;22.08;;;;;;;3.93;100.00;99565.81;5110908;27;20472;-67
2023/01/20 08:04:16;;;;;;;39.13;23.67;;;;;;;3.92;100.00;99556.16;5109069;28;20088;-68
2023/01/20 08:06:42;;;;;;;44.47;23.15;;;;;;;3.99;100.00;99571.53;5109433;27;20051;-68
2023/01/20 08:09:10;;;;;;;39.55;23.25;;;;;;;3.94;100.00;99548.97;5108573;28;20062;-67
2023/01/20 08:11:37;;;;;;;40.28;23.08;;;;;;;3.97;100.00;99551.41;5107491;28;20027;-67
2023/01/20 08:14:03;;;;;;;35.10;20.65;;;;;;;4.02;100.00;99555.41;5108397;28;20027;-67
2023/01/20 08:16:28;;;;;;;39.88;22.85;;;;;;;4.06;100.00;99575.44;5108987;28;20046;-67
2023/01/20 08:18:54;;;;;;;42.45;23.38;;;;;;;4.02;100.00;99573.09;5107453;28;20030;-68
2023/01/20 08:21:24;;;;;;;40.17;23.15;;;;;;;4.04;100.00;99580.00;5107133;28;20035;-67
2023/01/20 08:23:50;;;;;;;41.40;21.92;;;;;;;4.08;100.00;99583.28;5107234;28;20035;-67
2023/01/20 08:26:15;;;;;;;41.25;23.63;;;;;;;4.13;100.00;99581.16;5107327;28;20032;-67
2023/01/20 08:28:41;;;;;;;41.15;22.90;;;;;;;4.14;100.00;99585.47;5108563;28;20043;-67
2023/01/20 08:31:12;;;;;;;40.58;22.10;;;;;;;4.15;100.00;99588.03;5108527;28;20022;-67
2023/01/20 08:33:38;;;;;;;40.40;23.95;;;;;;;4.18;100.00;99586.94;5109279;28;20031;-67
2023/01/20 08:36:10;;;;;;;56.13;29.92;;;;;;;4.19;100.00;99594.78;5107985;28;20036;-67
2023/01/20 08:38:37;;;;;;;52.70;28.98;;;;;;;4.20;100.00;99604.44;5106639;28;20122;-68
2023/01/20 08:41:15;;;;;;;52.00;28.05;;;;;;;4.22;100.00;99591.06;5108325;28;20405;-67
2023/01/20 08:43:41;;;;;;;48.72;29.42;;;;;;;4.19;100.00;99584.19;5107045;28;20028;-68
2023/01/20 08:46:09;;;;;;;48.58;27.17;;;;;;;4.29;100.00;99592.31;5108515;28;20026;-68
2023/01/20 08:48:37;;;;;;;48.40;26.38;;;;;;;4.30;100.00;99588.69;5108330;28;20043;-68
2023/01/20 08:51:04;;;;;;;52.72;27.65;;;;;;;4.33;100.00;99577.88;5106665;28;20044;-67
2023/01/20 08:53:29;;;;;;;51.58;27.80;;;;;;;4.25;100.00;99559.00;5108340;28;20031;-67
2023/01/20 08:55:57;;;;;;;50.00;26.70;;;;;;;4.31;100.00;99577.13;5106771;28;20096;-68
2023/01/20 08:58:23;;;;;;;54.63;26.48;;;;;;;4.29;100.00;99566.63;5107056;28;20039;-67
2023/01/20 09:00:48;;;;;;;48.13;26.60;;;;;;;4.32;100.00;99568.22;5107945;28;20100;-68
2023/01/20 09:03:14;;;;;;;51.03;27.02;;;;;;;4.39;100.00;99572.09;5107942;28;20438;-68
2023/01/20 09:05:39;;;;;;;47.25;25.75;;;;;;;4.38;100.00;99570.38;5107938;28;20027;-67
2023/01/20 09:08:05;;;;;;;50.03;26.17;;;;;;;4.44;100.00;99580.56;5106976;28;20023;-68
2023/01/20 09:10:33;;;;;;;48.42;26.30;;;;;;;4.47;100.00;99590.94;5108142;28;20058;-68
2023/01/20 09:12:58;;;;;;;50.80;26.05;;;;;;;4.47;100.00;99578.53;5108103;28;20023;-67
2023/01/20 09:15:24;;;;;;;48.25;26.33;;;;;;;4.40;100.00;99564.03;5111958;28;20054;-67
2023/01/20 09:17:49;;;;;;;45.28;23.95;;;;;;;4.42;100.00;99562.09;5112050;28;20081;-67
2023/01/20 09:20:15;;;;;;;47.92;24.85;;;;;;;4.42;100.00;99553.31;5111540;28;20110;-68
2023/01/20 09:22:40;;;;;;;48.05;24.88;;;;;;;4.46;100.00;99565.38;5113960;27;20031;-67
2023/01/20 09:25:08;;;;;;;45.85;24.60;;;;;;;4.51;100.00;99572.03;5111499;28;20016;-68
2023/01/20 09:27:33;;;;;;;47.05;23.92;;;;;;;4.51;100.00;99560.53;5111757;28;20183;-67
2023/01/20 09:29:59;;;;;;;45.38;23.80;;;;;;;4.43;100.00;99554.97;5112000;28;20156;-67
2023/01/20 09:32:24;;;;;;;48.42;25.02;;;;;;;4.52;100.00;99555.13;5111779;28;20482;-67
2023/01/20 09:34:50;;;;;;;46.30;24.40;;;;;;;4.52;100.00;99551.66;5111761;28;20019;-68
2023/01/20 09:46:24;;;;;;;33.40;20.25;;;;;;;4.61;100.00;99521.72;5109724;28;20051;-68
2023/01/20 09:55:21;;;;;;;29.95;17.88;;;;;;;4.62;100.00;99500.34;5085576;28;20042;-67
2023/01/20 09:57:57;;;;;;;29.63;17.42;;;;;;;4.68;100.00;99504.38;5110429;28;20467;-67
2023/01/20 10:00:28;;;;;;;28.50;16.77;;;;;;;4.70;100.00;99499.78;5113004;27;20081;-68
2023/01/20 10:03:08;;;;;;;33.28;19.10;;;;;;;4.75;100.00;99501.09;5110940;28;20027;-68
2023/01/20 10:05:38;;;;;;;30.42;18.33;;;;;;;4.74;100.00;99514.50;5109564;28;20144;-68
2023/01/20 10:08:12;;;;;;;33.15;20.58;;;;;;;4.64;100.00;99495.78;5110310;28;20053;-68
2023/01/20 10:10:49;;;;;;;35.55;21.80;;;;;;;4.76;100.00;99507.28;5110635;27;20032;-68
2023/01/20 10:13:24;;;;;;;37.10;21.50;;;;;;;4.75;100.00;99497.63;5108172;28;20112;-68
2023/01/20 10:15:53;;;;;;;35.08;21.50;;;;;;;4.78;100.00;99501.84;5109418;27;20475;-68
2023/01/20 10:18:31;;;;;;;30.30;19.25;;;;;;;4.77;100.00;99497.50;5110301;28;20044;-67
2023/01/20 10:21:27;;;;;;;31.42;20.08;;;;;;;4.80;100.00;99491.97;5110597;28;20061;-68
2023/01/20 10:23:59;;;;;;;26.02;17.48;;;;;;;4.77;100.00;99497.50;5110502;28;20053;-68
2023/01/20 10:26:25;;;;;;;23.88;16.00;;;;;;;4.82;100.00;99500.63;5108215;28;20464;-68
2023/01/20 10:28:58;;;;;;;27.10;16.88;;;;;;;4.84;100.00;99496.91;5109012;28;20038;-68
2023/01/20 10:31:27;;;;;;;30.75;17.38;;;;;;;4.85;100.00;99495.94;5109866;28;20080;-68
2023/01/20 10:33:57;;;;;;;22.35;16.05;;;;;;;4.84;100.00;99499.56;5110154;28;20092;-68
2023/01/20 10:36:31;;;;;;;22.33;14.27;;;;;;;4.86;100.00;99494.97;5108500;28;20100;-68
2023/01/20 10:39:08;;;;;;;20.05;12.77;;;;;;;4.90;100.00;99492.94;5101605;28;20430;-69
2023/01/20 10:41:39;;;;;;;19.45;13.15;;;;;;;4.85;100.00;99495.09;5105535;28;20030;-68
2023/01/20 10:44:11;;;;;;;18.92;12.52;;;;;;;4.81;100.00;99488.31;5107311;27;20422;-69
2023/01/20 10:46:56;;;;;;;19.88;12.63;;;;;;;4.85;100.00;99489.78;5104992;27;20024;-69
2023/01/20 10:50:07;;;;;;;19.77;12.85;;;;;;;4.84;100.00;99477.47;5108454;28;20435;-68
2023/01/20 10:52:55;;;;;;;17.45;11.57;;;;;;;4.78;100.00;99465.53;5076806;28;20606;-68
2023/01/20 10:55:52;;;;;;;19.63;12.55;;;;;;;4.85;100.00;99480.00;5106360;28;20020;-68
2023/01/20 10:58:40;;;;;;;18.35;12.35;;;;;;;4.75;100.00;99458.59;5106710;28;20097;-68
2023/01/20 11:01:10;;;;;;;22.38;13.90;;;;;;;4.81;100.00;99467.09;5109516;28;20472;-67
2023/01/20 11:03:40;;;;;;;20.58;13.40;;;;;;;4.79;100.00;99475.16;5109204;28;20052;-68
2023/01/20 11:06:07;;;;;;;19.42;12.82;;;;;;;4.75;100.00;99461.25;5106931;28;20036;-67
2023/01/20 11:08:33;;;;;;;18.23;12.13;;;;;;;4.63;100.00;99432.19;5108217;28;20030;-68
2023/01/20 11:11:09;;;;;;;17.98;12.50;;;;;;;4.69;100.00;99444.97;5109164;28;20027;-68
2023/01/20 11:13:34;;;;;;;23.05;13.75;;;;;;;4.69;100.00;99443.19;5108773;28;20831;-67
2023/01/20 11:16:05;;;;;;;19.05;12.65;;;;;;;4.65;100.00;99443.53;5108631;28;20103;-68
2023/01/20 11:18:32;;;;;;;21.35;13.57;;;;;;;4.60;100.00;99427.09;5108536;28;20114;-67
2023/01/20 11:21:05;;;;;;;22.65;14.30;;;;;;;4.64;100.00;99445.34;5109114;28;20023;-67
2023/01/20 11:23:36;;;;;;;22.23;13.27;;;;;;;4.66;100.00;99453.19;5108608;28;20638;-67
2023/01/20 11:26:24;;;;;;;24.95;14.30;;;;;;;4.59;100.00;99441.34;5108963;28;20360;-67
2023/01/20 11:29:00;;;;;;;23.70;14.93;;;;;;;4.71;100.00;99456.34;5109193;28;20317;-67
2023/01/20 11:31:53;;;;;;;25.33;16.38;;;;;;;4.65;100.00;99446.19;5107155;28;20420;-67
2023/01/20 11:34:24;;;;;;;23.70;15.35;;;;;;;4.64;100.00;99445.34;5103138;28;20047;-67
2023/01/20 11:37:10;;;;;;;22.70;14.20;;;;;;;4.55;100.00;99435.41;5107648;28;20476;-67
2023/01/20 11:39:41;;;;;;;19.15;13.02;;;;;;;4.60;100.00;99440.38;5107496;28;20024;-67
2023/01/20 11:42:20;;;;;;;19.73;14.00;;;;;;;4.57;100.00;99433.50;5106171;28;20030;-68
2023/01/20 11:44:49;;;;;;;23.20;14.43;;;;;;;4.60;100.00;99425.31;5107954;28;20177;-67
2023/01/20 11:47:32;;;;;;;26.77;13.32;;;;;;;4.48;100.00;99402.34;5107918;28;20498;-67